sensor_id;sensor_type;location;lat;lon;timestamp;P1;durP1;ratioP1;P2;durP2;ratioP2
13291;SDS011;6714;53.056;8.690;2023-01-15T00:02:26;2.00;;;1.00;;
13291;SDS011;6714;53.056;8.690;2023-01-15T00:05:08;1.10;;;0.63;;
13291;SDS011;6714;53.056;8.690;2023-01-15T00:07:50;2.13;;;0.90;;
13291;SDS011;6714;53.056;8.690;2023-01-15T00:10:33;1.90;;;0.93;;
13291;SDS011;6714;53.056;8.690;2023-01-15T00:13:15;2.20;;;0.90;;
13291;SDS011;6714;53.056;8.690;2023-01-15T00:16:02;4.60;;;0.90;;
13291;SDS011;6714;53.056;8.690;2023-01-15T00:18:48;1.33;;;0.80;;
13291;SDS011;6714;53.056;8.690;2023-01-15T00:21:31;2.40;;;0.80;;
13291;SDS011;6714;53.056;8.690;2023-01-15T00:24:13;1.30;;;0.70;;
13291;SDS011;6714;53.056;8.690;2023-01-15T00:27:13;1.40;;;0.90;;
13291;SDS011;6714;53.056;8.690;2023-01-15T00:30:14;1.67;;;0.73;;
13291;SDS011;6714;53.056;8.690;2023-01-15T00:33:13;0.90;;;0.70;;
13291;SDS011;6714;53.056;8.690;2023-01-15T00:36:00;1.63;;;0.90;;
13291;SDS011;6714;53.056;8.690;2023-01-15T00:38:43;0.87;;;0.87;;
13291;SDS011;6714;53.056;8.690;2023-01-15T00:41:25;1.23;;;0.80;;
13291;SDS011;6714;53.056;8.690;2023-01-15T00:44:09;1.20;;;0.77;;
13291;SDS011;6714;53.056;8.690;2023-01-15T00:46:51;2.83;;;1.13;;
13291;SDS011;6714;53.056;8.690;2023-01-15T00:56:11;1.60;;;0.90;;
13291;SDS011;6714;53.056;8.690;2023-01-15T00:58:54;3.90;;;1.10;;
13291;SDS011;6714;53.056;8.690;2023-01-15T01:01:36;2.77;;;0.97;;
13291;SDS011;6714;53.056;8.690;2023-01-15T01:04:19;0.93;;;0.80;;
13291;SDS011;6714;53.056;8.690;2023-01-15T01:07:02;2.63;;;1.00;;
13291;SDS011;6714;53.056;8.690;2023-01-15T01:09:44;0.70;;;0.70;;
13291;SDS011;6714;53.056;8.690;2023-01-15T01:12:28;2.77;;;0.97;;
13291;SDS011;6714;53.056;8.690;2023-01-15T01:15:10;2.37;;;0.97;;
13291;SDS011;6714;53.056;8.690;2023-01-15T01:17:54;3.10;;;1.00;;
13291;SDS011;6714;53.056;8.690;2023-01-15T01:20:36;4.20;;;1.00;;
13291;SDS011;6714;53.056;8.690;2023-01-15T01:23:18;3.60;;;1.27;;
13291;SDS011;6714;53.056;8.690;2023-01-15T01:26:00;1.40;;;0.90;;
13291;SDS011;6714;53.056;8.690;2023-01-15T01:28:48;2.40;;;0.90;;
13291;SDS011;6714;53.056;8.690;2023-01-15T01:31:30;3.37;;;1.20;;
13291;SDS011;6714;53.056;8.690;2023-01-15T01:34:13;3.20;;;1.00;;
13291;SDS011;6714;53.056;8.690;2023-01-15T01:36:56;4.23;;;1.20;;
13291;SDS011;6714;53.056;8.690;2023-01-15T01:39:39;2.83;;;0.90;;
13291;SDS011;6714;53.056;8.690;2023-01-15T01:42:21;3.97;;;1.00;;
13291;SDS011;6714;53.056;8.690;2023-01-15T01:45:09;2.03;;;0.80;;
13291;SDS011;6714;53.056;8.690;2023-01-15T01:47:54;2.43;;;1.07;;
13291;SDS011;6714;53.056;8.690;2023-01-15T01:50:37;3.90;;;1.20;;
13291;SDS011;6714;53.056;8.690;2023-01-15T01:53:21;2.87;;;1.10;;
13291;SDS011;6714;53.056;8.690;2023-01-15T01:56:04;3.53;;;1.40;;
13291;SDS011;6714;53.056;8.690;2023-01-15T01:58:50;1.07;;;0.93;;
13291;SDS011;6714;53.056;8.690;2023-01-15T02:01:35;2.50;;;1.30;;
13291;SDS011;6714;53.056;8.690;2023-01-15T02:04:17;3.27;;;1.13;;
13291;SDS011;6714;53.056;8.690;2023-01-15T02:07:01;2.33;;;1.00;;
13291;SDS011;6714;53.056;8.690;2023-01-15T02:09:44;4.60;;;1.10;;
13291;SDS011;6714;53.056;8.690;2023-01-15T02:12:27;4.63;;;1.10;;
13291;SDS011;6714;53.056;8.690;2023-01-15T02:15:13;3.03;;;1.30;;
13291;SDS011;6714;53.056;8.690;2023-01-15T02:18:00;3.60;;;1.17;;
13291;SDS011;6714;53.056;8.690;2023-01-15T02:24:04;1.77;;;1.00;;
13291;SDS011;6714;53.056;8.690;2023-01-15T02:27:00;2.27;;;0.90;;
13291;SDS011;6714;53.056;8.690;2023-01-15T02:29:45;6.97;;;1.50;;
13291;SDS011;6714;53.056;8.690;2023-01-15T02:32:31;4.80;;;1.50;;
13291;SDS011;6714;53.056;8.690;2023-01-15T02:35:17;2.60;;;1.20;;
13291;SDS011;6714;53.056;8.690;2023-01-15T02:38:01;3.00;;;1.13;;
13291;SDS011;6714;53.056;8.690;2023-01-15T02:40:44;4.03;;;1.27;;
13291;SDS011;6714;53.056;8.690;2023-01-15T02:46:49;3.77;;;1.20;;
13291;SDS011;6714;53.056;8.690;2023-01-15T02:49:31;1.97;;;1.00;;
13291;SDS011;6714;53.056;8.690;2023-01-15T02:52:14;3.83;;;1.00;;
13291;SDS011;6714;53.056;8.690;2023-01-15T03:01:28;4.33;;;1.50;;
13291;SDS011;6714;53.056;8.690;2023-01-15T03:04:14;3.67;;;1.30;;
13291;SDS011;6714;53.056;8.690;2023-01-15T03:06:59;1.50;;;1.03;;
13291;SDS011;6714;53.056;8.690;2023-01-15T03:09:45;2.43;;;1.07;;
13291;SDS011;6714;53.056;8.690;2023-01-15T03:12:28;2.63;;;1.20;;
13291;SDS011;6714;53.056;8.690;2023-01-15T03:15:12;2.77;;;1.17;;
13291;SDS011;6714;53.056;8.690;2023-01-15T03:18:19;3.60;;;1.30;;
13291;SDS011;6714;53.056;8.690;2023-01-15T03:21:03;3.83;;;1.20;;
13291;SDS011;6714;53.056;8.690;2023-01-15T03:23:48;5.60;;;1.13;;
13291;SDS011;6714;53.056;8.690;2023-01-15T03:26:32;3.90;;;1.10;;
13291;SDS011;6714;53.056;8.690;2023-01-15T03:29:15;3.73;;;1.27;;
13291;SDS011;6714;53.056;8.690;2023-01-15T03:31:58;5.43;;;1.53;;
13291;SDS011;6714;53.056;8.690;2023-01-15T03:34:41;5.47;;;1.73;;
13291;SDS011;6714;53.056;8.690;2023-01-15T03:37:25;4.40;;;1.33;;
13291;SDS011;6714;53.056;8.690;2023-01-15T03:40:09;5.10;;;1.57;;
13291;SDS011;6714;53.056;8.690;2023-01-15T03:42:53;2.13;;;0.93;;
13291;SDS011;6714;53.056;8.690;2023-01-15T03:45:51;2.80;;;0.90;;
13291;SDS011;6714;53.056;8.690;2023-01-15T03:48:37;8.37;;;1.80;;
13291;SDS011;6714;53.056;8.690;2023-01-15T03:51:22;5.63;;;1.50;;
13291;SDS011;6714;53.056;8.690;2023-01-15T03:54:07;5.17;;;1.53;;
13291;SDS011;6714;53.056;8.690;2023-01-15T03:56:52;2.37;;;1.23;;
13291;SDS011;6714;53.056;8.690;2023-01-15T03:59:36;1.97;;;1.20;;
13291;SDS011;6714;53.056;8.690;2023-01-15T04:02:20;4.87;;;1.60;;
13291;SDS011;6714;53.056;8.690;2023-01-15T04:05:03;4.10;;;1.20;;
13291;SDS011;6714;53.056;8.690;2023-01-15T04:07:46;3.53;;;1.53;;
13291;SDS011;6714;53.056;8.690;2023-01-15T04:10:30;3.97;;;1.57;;
13291;SDS011;6714;53.056;8.690;2023-01-15T04:13:12;4.50;;;1.07;;
13291;SDS011;6714;53.056;8.690;2023-01-15T04:15:56;2.10;;;0.90;;
13291;SDS011;6714;53.056;8.690;2023-01-15T04:18:38;8.33;;;1.87;;
13291;SDS011;6714;53.056;8.690;2023-01-15T04:21:20;2.90;;;1.40;;
13291;SDS011;6714;53.056;8.690;2023-01-15T04:24:03;5.43;;;1.77;;
13291;SDS011;6714;53.056;8.690;2023-01-15T04:26:46;4.40;;;1.47;;
13291;SDS011;6714;53.056;8.690;2023-01-15T04:29:28;2.50;;;1.30;;
13291;SDS011;6714;53.056;8.690;2023-01-15T04:32:10;4.17;;;1.40;;
13291;SDS011;6714;53.056;8.690;2023-01-15T04:34:54;4.17;;;1.63;;
13291;SDS011;6714;53.056;8.690;2023-01-15T04:37:36;3.27;;;1.30;;
13291;SDS011;6714;53.056;8.690;2023-01-15T04:40:18;4.97;;;1.40;;
13291;SDS011;6714;53.056;8.690;2023-01-15T04:43:16;5.37;;;1.80;;
13291;SDS011;6714;53.056;8.690;2023-01-15T04:46:19;4.87;;;1.57;;
13291;SDS011;6714;53.056;8.690;2023-01-15T04:49:01;5.83;;;1.53;;
13291;SDS011;6714;53.056;8.690;2023-01-15T04:51:43;5.27;;;1.70;;
13291;SDS011;6714;53.056;8.690;2023-01-15T04:54:26;3.87;;;1.80;;
13291;SDS011;6714;53.056;8.690;2023-01-15T04:57:09;8.23;;;1.97;;
13291;SDS011;6714;53.056;8.690;2023-01-15T04:59:53;3.37;;;1.70;;
13291;SDS011;6714;53.056;8.690;2023-01-15T05:02:37;5.33;;;1.70;;
13291;SDS011;6714;53.056;8.690;2023-01-15T05:05:20;5.47;;;1.80;;
13291;SDS011;6714;53.056;8.690;2023-01-15T05:08:02;5.57;;;2.20;;
13291;SDS011;6714;53.056;8.690;2023-01-15T05:10:44;5.20;;;1.93;;
13291;SDS011;6714;53.056;8.690;2023-01-15T05:13:26;3.33;;;1.37;;
13291;SDS011;6714;53.056;8.690;2023-01-15T05:16:11;4.10;;;1.73;;
13291;SDS011;6714;53.056;8.690;2023-01-15T05:18:55;6.70;;;1.93;;
13291;SDS011;6714;53.056;8.690;2023-01-15T05:21:39;5.00;;;1.63;;
13291;SDS011;6714;53.056;8.690;2023-01-15T05:24:21;8.27;;;2.17;;
13291;SDS011;6714;53.056;8.690;2023-01-15T05:27:04;3.87;;;1.53;;
13291;SDS011;6714;53.056;8.690;2023-01-15T05:29:46;6.90;;;1.83;;
13291;SDS011;6714;53.056;8.690;2023-01-15T05:32:30;3.87;;;1.90;;
13291;SDS011;6714;53.056;8.690;2023-01-15T05:35:12;4.40;;;1.67;;
13291;SDS011;6714;53.056;8.690;2023-01-15T05:37:54;7.17;;;1.90;;
13291;SDS011;6714;53.056;8.690;2023-01-15T05:40:37;5.87;;;1.90;;
13291;SDS011;6714;53.056;8.690;2023-01-15T05:43:19;4.83;;;1.30;;
13291;SDS011;6714;53.056;8.690;2023-01-15T05:46:01;3.10;;;1.50;;
13291;SDS011;6714;53.056;8.690;2023-01-15T05:48:44;4.20;;;1.70;;
13291;SDS011;6714;53.056;8.690;2023-01-15T05:51:27;5.70;;;1.83;;
13291;SDS011;6714;53.056;8.690;2023-01-15T05:54:10;6.27;;;1.87;;
13291;SDS011;6714;53.056;8.690;2023-01-15T05:56:52;8.57;;;2.17;;
13291;SDS011;6714;53.056;8.690;2023-01-15T05:59:35;10.83;;;2.13;;
13291;SDS011;6714;53.056;8.690;2023-01-15T06:02:17;6.90;;;1.63;;
13291;SDS011;6714;53.056;8.690;2023-01-15T06:05:00;4.50;;;1.70;;
13291;SDS011;6714;53.056;8.690;2023-01-15T06:07:47;4.17;;;1.80;;
13291;SDS011;6714;53.056;8.690;2023-01-15T06:10:29;7.70;;;1.80;;
13291;SDS011;6714;53.056;8.690;2023-01-15T06:13:11;8.57;;;2.13;;
13291;SDS011;6714;53.056;8.690;2023-01-15T06:15:53;7.07;;;1.60;;
13291;SDS011;6714;53.056;8.690;2023-01-15T06:18:36;4.80;;;1.43;;
13291;SDS011;6714;53.056;8.690;2023-01-15T06:21:19;4.80;;;1.70;;
13291;SDS011;6714;53.056;8.690;2023-01-15T06:24:02;7.10;;;1.80;;
13291;SDS011;6714;53.056;8.690;2023-01-15T06:26:44;7.13;;;1.97;;
13291;SDS011;6714;53.056;8.690;2023-01-15T06:29:27;6.10;;;1.73;;
13291;SDS011;6714;53.056;8.690;2023-01-15T06:32:09;4.70;;;2.33;;
13291;SDS011;6714;53.056;8.690;2023-01-15T06:34:51;6.20;;;2.10;;
13291;SDS011;6714;53.056;8.690;2023-01-15T06:37:35;6.57;;;2.00;;
13291;SDS011;6714;53.056;8.690;2023-01-15T06:40:17;6.17;;;2.00;;
13291;SDS011;6714;53.056;8.690;2023-01-15T06:42:59;4.50;;;1.50;;
13291;SDS011;6714;53.056;8.690;2023-01-15T06:45:59;5.43;;;1.97;;
13291;SDS011;6714;53.056;8.690;2023-01-15T06:48:59;6.63;;;1.83;;
13291;SDS011;6714;53.056;8.690;2023-01-15T06:51:50;4.40;;;1.90;;
13291;SDS011;6714;53.056;8.690;2023-01-15T06:54:34;6.73;;;2.40;;
13291;SDS011;6714;53.056;8.690;2023-01-15T06:57:16;6.90;;;1.93;;
13291;SDS011;6714;53.056;8.690;2023-01-15T06:59:58;6.33;;;1.63;;
13291;SDS011;6714;53.056;8.690;2023-01-15T07:02:41;5.37;;;1.60;;
13291;SDS011;6714;53.056;8.690;2023-01-15T07:05:23;8.37;;;2.10;;
13291;SDS011;6714;53.056;8.690;2023-01-15T07:08:05;7.13;;;2.17;;
13291;SDS011;6714;53.056;8.690;2023-01-15T07:10:49;5.43;;;1.80;;
13291;SDS011;6714;53.056;8.690;2023-01-15T07:13:32;3.47;;;1.50;;
13291;SDS011;6714;53.056;8.690;2023-01-15T07:16:14;4.57;;;1.90;;
13291;SDS011;6714;53.056;8.690;2023-01-15T07:19:07;5.50;;;1.83;;
13291;SDS011;6714;53.056;8.690;2023-01-15T07:21:50;2.63;;;1.70;;
13291;SDS011;6714;53.056;8.690;2023-01-15T07:24:32;4.03;;;1.77;;
13291;SDS011;6714;53.056;8.690;2023-01-15T07:27:16;3.03;;;1.57;;
13291;SDS011;6714;53.056;8.690;2023-01-15T07:29:58;5.17;;;1.93;;
13291;SDS011;6714;53.056;8.690;2023-01-15T07:32:40;6.77;;;1.93;;
13291;SDS011;6714;53.056;8.690;2023-01-15T07:35:22;7.33;;;2.00;;
13291;SDS011;6714;53.056;8.690;2023-01-15T07:38:05;6.57;;;1.97;;
13291;SDS011;6714;53.056;8.690;2023-01-15T07:40:47;5.90;;;1.70;;
13291;SDS011;6714;53.056;8.690;2023-01-15T07:43:50;6.27;;;2.00;;
13291;SDS011;6714;53.056;8.690;2023-01-15T07:46:53;6.43;;;1.90;;
13291;SDS011;6714;53.056;8.690;2023-01-15T07:49:53;8.07;;;1.90;;
13291;SDS011;6714;53.056;8.690;2023-01-15T07:52:35;2.97;;;1.73;;
13291;SDS011;6714;53.056;8.690;2023-01-15T07:55:17;4.03;;;1.57;;
13291;SDS011;6714;53.056;8.690;2023-01-15T07:58:02;6.17;;;1.90;;
13291;SDS011;6714;53.056;8.690;2023-01-15T08:00:46;5.20;;;1.77;;
13291;SDS011;6714;53.056;8.690;2023-01-15T08:03:28;4.97;;;1.60;;
13291;SDS011;6714;53.056;8.690;2023-01-15T08:06:10;5.57;;;1.40;;
13291;SDS011;6714;53.056;8.690;2023-01-15T08:08:52;5.20;;;1.73;;
13291;SDS011;6714;53.056;8.690;2023-01-15T08:11:35;6.20;;;1.70;;
13291;SDS011;6714;53.056;8.690;2023-01-15T08:14:34;6.73;;;1.93;;
13291;SDS011;6714;53.056;8.690;2023-01-15T08:17:36;5.50;;;1.47;;
13291;SDS011;6714;53.056;8.690;2023-01-15T08:23:36;3.70;;;1.30;;
13291;SDS011;6714;53.056;8.690;2023-01-15T08:26:19;1.87;;;1.27;;
13291;SDS011;6714;53.056;8.690;2023-01-15T08:32:21;3.77;;;1.50;;
13291;SDS011;6714;53.056;8.690;2023-01-15T08:35:05;3.00;;;1.50;;
13291;SDS011;6714;53.056;8.690;2023-01-15T08:37:48;5.47;;;1.53;;
13291;SDS011;6714;53.056;8.690;2023-01-15T08:40:30;2.80;;;1.20;;
13291;SDS011;6714;53.056;8.690;2023-01-15T08:43:12;3.57;;;1.27;;
13291;SDS011;6714;53.056;8.690;2023-01-15T08:45:54;3.83;;;1.50;;
13291;SDS011;6714;53.056;8.690;2023-01-15T08:48:38;3.97;;;1.53;;
13291;SDS011;6714;53.056;8.690;2023-01-15T08:51:21;2.80;;;1.33;;
13291;SDS011;6714;53.056;8.690;2023-01-15T08:54:03;4.53;;;1.57;;
13291;SDS011;6714;53.056;8.690;2023-01-15T08:56:46;1.97;;;1.40;;
13291;SDS011;6714;53.056;8.690;2023-01-15T08:59:28;4.10;;;1.70;;
13291;SDS011;6714;53.056;8.690;2023-01-15T09:02:23;3.40;;;1.63;;
13291;SDS011;6714;53.056;8.690;2023-01-15T09:08:27;2.93;;;1.80;;
13291;SDS011;6714;53.056;8.690;2023-01-15T09:11:09;3.27;;;1.47;;
13291;SDS011;6714;53.056;8.690;2023-01-15T09:13:52;5.43;;;1.93;;
13291;SDS011;6714;53.056;8.690;2023-01-15T09:16:34;3.53;;;1.37;;
13291;SDS011;6714;53.056;8.690;2023-01-15T09:19:16;5.57;;;1.70;;
13291;SDS011;6714;53.056;8.690;2023-01-15T09:21:58;4.23;;;1.80;;
13291;SDS011;6714;53.056;8.690;2023-01-15T09:24:42;4.87;;;1.80;;
13291;SDS011;6714;53.056;8.690;2023-01-15T09:27:24;3.60;;;1.67;;
13291;SDS011;6714;53.056;8.690;2023-01-15T09:30:07;4.20;;;1.60;;
13291;SDS011;6714;53.056;8.690;2023-01-15T09:32:49;5.97;;;1.80;;
13291;SDS011;6714;53.056;8.690;2023-01-15T09:35:31;4.87;;;1.60;;
13291;SDS011;6714;53.056;8.690;2023-01-15T09:38:14;4.50;;;1.70;;
13291;SDS011;6714;53.056;8.690;2023-01-15T09:40:58;6.17;;;1.70;;
13291;SDS011;6714;53.056;8.690;2023-01-15T09:43:45;6.80;;;1.40;;
13291;SDS011;6714;53.056;8.690;2023-01-15T09:46:29;4.57;;;1.63;;
13291;SDS011;6714;53.056;8.690;2023-01-15T09:49:16;3.43;;;1.30;;
13291;SDS011;6714;53.056;8.690;2023-01-15T09:52:06;3.80;;;1.53;;
13291;SDS011;6714;53.056;8.690;2023-01-15T09:54:54;4.33;;;1.40;;
13291;SDS011;6714;53.056;8.690;2023-01-15T09:57:42;4.27;;;1.30;;
13291;SDS011;6714;53.056;8.690;2023-01-15T10:00:26;6.60;;;1.70;;
13291;SDS011;6714;53.056;8.690;2023-01-15T10:03:11;5.30;;;1.50;;
13291;SDS011;6714;53.056;8.690;2023-01-15T10:06:01;2.57;;;1.00;;
13291;SDS011;6714;53.056;8.690;2023-01-15T10:08:47;7.13;;;1.83;;
13291;SDS011;6714;53.056;8.690;2023-01-15T10:11:37;6.73;;;1.80;;
13291;SDS011;6714;53.056;8.690;2023-01-15T10:14:41;3.37;;;1.43;;
13291;SDS011;6714;53.056;8.690;2023-01-15T10:17:26;5.40;;;1.67;;
13291;SDS011;6714;53.056;8.690;2023-01-15T10:20:12;5.23;;;1.40;;
13291;SDS011;6714;53.056;8.690;2023-01-15T10:23:00;3.67;;;1.60;;
13291;SDS011;6714;53.056;8.690;2023-01-15T10:25:49;3.90;;;1.40;;
13291;SDS011;6714;53.056;8.690;2023-01-15T10:28:38;4.57;;;1.40;;
13291;SDS011;6714;53.056;8.690;2023-01-15T10:31:26;3.60;;;1.60;;
13291;SDS011;6714;53.056;8.690;2023-01-15T10:37:08;2.93;;;1.20;;
13291;SDS011;6714;53.056;8.690;2023-01-15T10:39:57;4.50;;;1.50;;
13291;SDS011;6714;53.056;8.690;2023-01-15T10:42:48;5.10;;;1.80;;
13291;SDS011;6714;53.056;8.690;2023-01-15T10:45:31;3.17;;;1.50;;
13291;SDS011;6714;53.056;8.690;2023-01-15T10:48:18;5.30;;;1.53;;
13291;SDS011;6714;53.056;8.690;2023-01-15T10:51:03;2.77;;;1.60;;
13291;SDS011;6714;53.056;8.690;2023-01-15T10:53:48;5.23;;;1.87;;
13291;SDS011;6714;53.056;8.690;2023-01-15T10:56:32;3.77;;;1.70;;
13291;SDS011;6714;53.056;8.690;2023-01-15T10:59:17;2.10;;;1.30;;
13291;SDS011;6714;53.056;8.690;2023-01-15T11:02:01;5.23;;;1.50;;
13291;SDS011;6714;53.056;8.690;2023-01-15T11:04:46;3.73;;;1.40;;
13291;SDS011;6714;53.056;8.690;2023-01-15T11:07:30;3.20;;;1.30;;
13291;SDS011;6714;53.056;8.690;2023-01-15T11:10:16;2.63;;;1.30;;
13291;SDS011;6714;53.056;8.690;2023-01-15T11:12:59;3.27;;;1.53;;
13291;SDS011;6714;53.056;8.690;2023-01-15T11:16:00;3.77;;;1.37;;
13291;SDS011;6714;53.056;8.690;2023-01-15T11:19:00;3.70;;;1.50;;
13291;SDS011;6714;53.056;8.690;2023-01-15T11:22:04;1.97;;;1.30;;
13291;SDS011;6714;53.056;8.690;2023-01-15T11:24:48;4.50;;;1.40;;
13291;SDS011;6714;53.056;8.690;2023-01-15T11:27:33;3.10;;;1.40;;
13291;SDS011;6714;53.056;8.690;2023-01-15T11:30:26;5.57;;;1.50;;
13291;SDS011;6714;53.056;8.690;2023-01-15T11:33:19;2.40;;;1.33;;
13291;SDS011;6714;53.056;8.690;2023-01-15T11:36:03;5.17;;;1.20;;
13291;SDS011;6714;53.056;8.690;2023-01-15T11:38:47;1.10;;;1.10;;
13291;SDS011;6714;53.056;8.690;2023-01-15T11:41:30;3.87;;;1.60;;
13291;SDS011;6714;53.056;8.690;2023-01-15T11:44:26;3.67;;;1.57;;
13291;SDS011;6714;53.056;8.690;2023-01-15T11:47:38;2.20;;;1.53;;
13291;SDS011;6714;53.056;8.690;2023-01-15T11:50:39;4.40;;;1.70;;
13291;SDS011;6714;53.056;8.690;2023-01-15T11:53:25;3.07;;;1.40;;
13291;SDS011;6714;53.056;8.690;2023-01-15T11:56:10;2.87;;;1.30;;
13291;SDS011;6714;53.056;8.690;2023-01-15T11:58:55;4.57;;;1.47;;
13291;SDS011;6714;53.056;8.690;2023-01-15T12:01:38;4.10;;;1.40;;
13291;SDS011;6714;53.056;8.690;2023-01-15T12:04:23;3.07;;;1.60;;
13291;SDS011;6714;53.056;8.690;2023-01-15T12:07:10;3.43;;;1.57;;
13291;SDS011;6714;53.056;8.690;2023-01-15T12:10:00;5.40;;;1.87;;
13291;SDS011;6714;53.056;8.690;2023-01-15T12:12:48;1.90;;;1.17;;
13291;SDS011;6714;53.056;8.690;2023-01-15T12:15:35;5.07;;;1.50;;
13291;SDS011;6714;53.056;8.690;2023-01-15T12:18:24;4.13;;;1.50;;
13291;SDS011;6714;53.056;8.690;2023-01-15T12:21:15;4.67;;;1.73;;
13291;SDS011;6714;53.056;8.690;2023-01-15T12:24:03;5.17;;;1.50;;
13291;SDS011;6714;53.056;8.690;2023-01-15T12:26:55;6.40;;;1.37;;
13291;SDS011;6714;53.056;8.690;2023-01-15T12:29:43;3.70;;;1.37;;
13291;SDS011;6714;53.056;8.690;2023-01-15T12:32:27;6.50;;;2.07;;
13291;SDS011;6714;53.056;8.690;2023-01-15T12:35:13;7.60;;;1.80;;
13291;SDS011;6714;53.056;8.690;2023-01-15T12:37:57;8.50;;;2.20;;
13291;SDS011;6714;53.056;8.690;2023-01-15T12:40:42;6.00;;;1.80;;
13291;SDS011;6714;53.056;8.690;2023-01-15T12:43:26;4.57;;;2.07;;
13291;SDS011;6714;53.056;8.690;2023-01-15T12:46:28;2.77;;;1.53;;
13291;SDS011;6714;53.056;8.690;2023-01-15T12:49:15;4.30;;;1.87;;
13291;SDS011;6714;53.056;8.690;2023-01-15T12:52:00;4.37;;;1.60;;
13291;SDS011;6714;53.056;8.690;2023-01-15T12:54:47;3.93;;;1.63;;
13291;SDS011;6714;53.056;8.690;2023-01-15T12:57:33;4.07;;;1.83;;
13291;SDS011;6714;53.056;8.690;2023-01-15T13:00:17;5.93;;;1.60;;
13291;SDS011;6714;53.056;8.690;2023-01-15T13:03:09;3.30;;;1.43;;
13291;SDS011;6714;53.056;8.690;2023-01-15T13:05:57;3.03;;;1.80;;
13291;SDS011;6714;53.056;8.690;2023-01-15T13:08:42;3.30;;;1.77;;
13291;SDS011;6714;53.056;8.690;2023-01-15T13:11:27;7.00;;;2.27;;
13291;SDS011;6714;53.056;8.690;2023-01-15T13:14:11;4.43;;;1.90;;
13291;SDS011;6714;53.056;8.690;2023-01-15T13:16:56;3.50;;;1.93;;
13291;SDS011;6714;53.056;8.690;2023-01-15T13:19:44;3.90;;;1.77;;
13291;SDS011;6714;53.056;8.690;2023-01-15T13:22:28;4.87;;;1.90;;
13291;SDS011;6714;53.056;8.690;2023-01-15T13:28:22;2.90;;;1.53;;
13291;SDS011;6714;53.056;8.690;2023-01-15T13:31:09;4.43;;;1.80;;
13291;SDS011;6714;53.056;8.690;2023-01-15T13:33:54;5.00;;;1.60;;
13291;SDS011;6714;53.056;8.690;2023-01-15T13:36:39;4.73;;;1.60;;
13291;SDS011;6714;53.056;8.690;2023-01-15T13:39:24;3.87;;;1.70;;
13291;SDS011;6714;53.056;8.690;2023-01-15T13:42:14;7.07;;;2.00;;
13291;SDS011;6714;53.056;8.690;2023-01-15T13:48:16;3.53;;;1.70;;
13291;SDS011;6714;53.056;8.690;2023-01-15T13:51:00;5.73;;;2.27;;
13291;SDS011;6714;53.056;8.690;2023-01-15T13:53:45;4.93;;;1.87;;
13291;SDS011;6714;53.056;8.690;2023-01-15T13:56:28;4.23;;;1.73;;
13291;SDS011;6714;53.056;8.690;2023-01-15T13:59:28;3.73;;;1.40;;
13291;SDS011;6714;53.056;8.690;2023-01-15T14:02:19;3.13;;;1.60;;
13291;SDS011;6714;53.056;8.690;2023-01-15T14:05:23;5.00;;;1.73;;
13291;SDS011;6714;53.056;8.690;2023-01-15T14:08:13;4.73;;;1.87;;
13291;SDS011;6714;53.056;8.690;2023-01-15T14:10:58;4.30;;;1.73;;
13291;SDS011;6714;53.056;8.690;2023-01-15T14:13:45;5.70;;;1.70;;
13291;SDS011;6714;53.056;8.690;2023-01-15T14:16:35;3.13;;;1.50;;
13291;SDS011;6714;53.056;8.690;2023-01-15T14:19:37;3.97;;;1.60;;
13291;SDS011;6714;53.056;8.690;2023-01-15T14:22:34;5.33;;;1.83;;
13291;SDS011;6714;53.056;8.690;2023-01-15T14:25:23;4.27;;;1.53;;
13291;SDS011;6714;53.056;8.690;2023-01-15T14:28:22;3.03;;;1.60;;
13291;SDS011;6714;53.056;8.690;2023-01-15T14:31:10;4.03;;;1.80;;
13291;SDS011;6714;53.056;8.690;2023-01-15T14:33:56;2.60;;;1.70;;
13291;SDS011;6714;53.056;8.690;2023-01-15T14:36:45;3.83;;;1.47;;
13291;SDS011;6714;53.056;8.690;2023-01-15T14:39:36;4.00;;;1.67;;
13291;SDS011;6714;53.056;8.690;2023-01-15T14:42:23;4.07;;;1.80;;
13291;SDS011;6714;53.056;8.690;2023-01-15T14:45:25;6.17;;;1.97;;
13291;SDS011;6714;53.056;8.690;2023-01-15T14:48:15;3.77;;;1.60;;
13291;SDS011;6714;53.056;8.690;2023-01-15T14:51:06;3.67;;;1.60;;
13291;SDS011;6714;53.056;8.690;2023-01-15T14:53:48;4.70;;;1.63;;
13291;SDS011;6714;53.056;8.690;2023-01-15T14:56:32;5.67;;;1.93;;
13291;SDS011;6714;53.056;8.690;2023-01-15T14:59:16;7.00;;;2.13;;
13291;SDS011;6714;53.056;8.690;2023-01-15T15:02:04;4.83;;;1.83;;
13291;SDS011;6714;53.056;8.690;2023-01-15T15:04:47;3.93;;;1.70;;
13291;SDS011;6714;53.056;8.690;2023-01-15T15:07:33;5.27;;;1.60;;
13291;SDS011;6714;53.056;8.690;2023-01-15T15:10:18;3.00;;;1.60;;
13291;SDS011;6714;53.056;8.690;2023-01-15T15:13:04;4.07;;;1.60;;
13291;SDS011;6714;53.056;8.690;2023-01-15T15:15:49;3.37;;;1.43;;
13291;SDS011;6714;53.056;8.690;2023-01-15T15:18:35;5.17;;;1.97;;
13291;SDS011;6714;53.056;8.690;2023-01-15T15:21:21;2.67;;;1.47;;
13291;SDS011;6714;53.056;8.690;2023-01-15T15:24:06;5.60;;;1.83;;
13291;SDS011;6714;53.056;8.690;2023-01-15T15:26:51;2.40;;;1.53;;
13291;SDS011;6714;53.056;8.690;2023-01-15T15:29:33;5.10;;;1.60;;
13291;SDS011;6714;53.056;8.690;2023-01-15T15:32:16;2.53;;;1.50;;
13291;SDS011;6714;53.056;8.690;2023-01-15T15:35:01;2.70;;;1.70;;
13291;SDS011;6714;53.056;8.690;2023-01-15T15:37:43;4.17;;;1.73;;
13291;SDS011;6714;53.056;8.690;2023-01-15T15:40:27;4.40;;;1.63;;
13291;SDS011;6714;53.056;8.690;2023-01-15T15:43:12;4.93;;;1.57;;
13291;SDS011;6714;53.056;8.690;2023-01-15T15:46:24;3.40;;;1.70;;
13291;SDS011;6714;53.056;8.690;2023-01-15T15:49:24;2.33;;;1.33;;
13291;SDS011;6714;53.056;8.690;2023-01-15T15:52:14;1.87;;;1.23;;
13291;SDS011;6714;53.056;8.690;2023-01-15T15:54:59;3.67;;;1.60;;
13291;SDS011;6714;53.056;8.690;2023-01-15T15:57:43;5.50;;;1.70;;
13291;SDS011;6714;53.056;8.690;2023-01-15T16:00:27;3.30;;;1.67;;
13291;SDS011;6714;53.056;8.690;2023-01-15T16:03:16;3.67;;;1.50;;
13291;SDS011;6714;53.056;8.690;2023-01-15T16:06:00;3.83;;;1.83;;
13291;SDS011;6714;53.056;8.690;2023-01-15T16:08:50;2.57;;;1.57;;
13291;SDS011;6714;53.056;8.690;2023-01-15T16:11:32;5.33;;;1.60;;
13291;SDS011;6714;53.056;8.690;2023-01-15T16:14:15;3.13;;;1.80;;
13291;SDS011;6714;53.056;8.690;2023-01-15T16:16:57;5.67;;;1.90;;
13291;SDS011;6714;53.056;8.690;2023-01-15T16:19:40;3.80;;;1.80;;
13291;SDS011;6714;53.056;8.690;2023-01-15T16:22:23;3.77;;;1.53;;
13291;SDS011;6714;53.056;8.690;2023-01-15T16:25:18;3.00;;;1.70;;
13291;SDS011;6714;53.056;8.690;2023-01-15T16:28:01;2.23;;;1.43;;
13291;SDS011;6714;53.056;8.690;2023-01-15T16:30:43;1.97;;;1.50;;
13291;SDS011;6714;53.056;8.690;2023-01-15T16:33:26;2.53;;;1.70;;
13291;SDS011;6714;53.056;8.690;2023-01-15T16:36:08;2.80;;;1.30;;
13291;SDS011;6714;53.056;8.690;2023-01-15T16:38:50;3.43;;;1.60;;
13291;SDS011;6714;53.056;8.690;2023-01-15T16:41:37;2.57;;;1.60;;
13291;SDS011;6714;53.056;8.690;2023-01-15T16:44:24;2.20;;;1.27;;
13291;SDS011;6714;53.056;8.690;2023-01-15T16:47:08;4.03;;;1.63;;
13291;SDS011;6714;53.056;8.690;2023-01-15T16:53:02;1.83;;;1.20;;
13291;SDS011;6714;53.056;8.690;2023-01-15T16:55:45;3.50;;;1.40;;
13291;SDS011;6714;53.056;8.690;2023-01-15T16:58:35;2.23;;;1.43;;
13291;SDS011;6714;53.056;8.690;2023-01-15T17:04:23;2.73;;;1.40;;
13291;SDS011;6714;53.056;8.690;2023-01-15T17:07:13;1.43;;;0.90;;
13291;SDS011;6714;53.056;8.690;2023-01-15T17:09:58;1.83;;;1.17;;
13291;SDS011;6714;53.056;8.690;2023-01-15T17:12:41;2.90;;;1.40;;
13291;SDS011;6714;53.056;8.690;2023-01-15T17:15:29;1.40;;;1.30;;
13291;SDS011;6714;53.056;8.690;2023-01-15T17:18:26;2.20;;;1.13;;
13291;SDS011;6714;53.056;8.690;2023-01-15T17:21:10;2.73;;;1.40;;
13291;SDS011;6714;53.056;8.690;2023-01-15T17:23:57;2.40;;;1.17;;
13291;SDS011;6714;53.056;8.690;2023-01-15T17:26:40;1.93;;;1.00;;
13291;SDS011;6714;53.056;8.690;2023-01-15T17:29:22;1.10;;;1.00;;
13291;SDS011;6714;53.056;8.690;2023-01-15T17:32:08;2.20;;;1.17;;
13291;SDS011;6714;53.056;8.690;2023-01-15T17:34:52;1.33;;;1.00;;
13291;SDS011;6714;53.056;8.690;2023-01-15T17:37:50;1.07;;;1.00;;
13291;SDS011;6714;53.056;8.690;2023-01-15T17:40:32;1.33;;;1.03;;